Airfield :
LOGIN :

Register | Disclaimer

   EN    FR    IT 

 










Legend :    VFR   Marginal VFR   IFR   Intensive IFR   Very Intensive IFR
Visi :
Ceiling :
>= 8 km
>= 3000ft
5 to 8 km
1000 to 3000 ft
1500m to 5 km
500 to 1000 ft
800 to 1500m
200 to 500 ft
< 800m
< 200 ft
Symbols :   Thunderstorms  Fog  Heavy snow  Heavy precipitations  Wind > 20 kt
SIGMETs :     Misc.  Thunderstorms  Icing  Turbulence  Mountain Waves  Volcanic Ashes







- Airport Elevation : 796 ft
- IATA code : SYT
- Download approach charts


LFLN - Saint-Yan

CURRENT METAR :
  • 210900Z AUTO VRB03KT CAVOK 07/01 Q1031 NOSIG

EXPIRED METARs :
  • 210830Z AUTO VRB02KT CAVOK 05/01 Q1031 NOSIG
  • 210800Z AUTO VRB02KT CAVOK 03/00 Q1031 NOSIG
  • 210730Z AUTO VRB02KT CAVOK 01/M00 Q1031 NOSIG
  • 210700Z AUTO 15002KT CAVOK M01/M02 Q1031 NOSIG
  • 210630Z AUTO 00000KT CAVOK M02/M03 Q1031 NOSIG

TAF TAF LFLN
Valid from the 21 at 09:00 until the 21 at 18:00 UTC


210800Z 2109/2118 VRB02KT CAVOK
BECMG 2110/2112 04006KT
No reported NOTAMs for that airfield.



MET'MAP, your aeronautical weather chart ! - Copyright ORBIFLY December 2007 - Disclaimer

ORBIFLY MET'MAP TEAM :

Programming & Development : Alexandra Zaïnal
Concept & Development : Baudouin d'Aumeries
Co-Development & Prog : Marc-Olivier Méhu
Technical & hardware support : Manuel Goepfert

Contact : metmap@orbifly.com




SOURCES & CREDITS :

   NOAA